createdAt,value
2022-12-18T00:00:56.646Z,15.38
2022-12-18T00:02:02.344Z,16.58
2022-12-18T00:03:04.003Z,17.55
2022-12-18T00:04:08.826Z,14.93
2022-12-18T00:05:10.439Z,15.73
2022-12-18T00:06:12.725Z,16.70
2022-12-18T00:07:14.127Z,17.13
2022-12-18T00:08:16.505Z,17.23
2022-12-18T00:09:17.946Z,17.40
2022-12-18T00:10:19.351Z,17.35
2022-12-18T00:11:24.499Z,16.15
2022-12-18T00:12:30.011Z,16.77
2022-12-18T00:13:32.212Z,17.50
2022-12-18T00:14:33.732Z,18.40
2022-12-18T00:15:36.116Z,15.85
2022-12-18T00:16:37.991Z,17.40
2022-12-18T00:17:39.413Z,17.73
2022-12-18T00:18:41.622Z,17.80
2022-12-18T00:19:43.332Z,18.30
2022-12-18T00:20:44.729Z,17.60
2022-12-18T00:21:46.546Z,17.15
2022-12-18T00:22:47.944Z,18.08
2022-12-18T00:23:51.164Z,18.20
2022-12-18T00:24:52.584Z,17.02
2022-12-18T00:25:54.018Z,18.85
2022-12-18T00:26:55.511Z,17.58
2022-12-18T00:27:56.910Z,16.73
2022-12-18T00:29:03.424Z,16.77
2022-12-18T00:30:07.638Z,16.08
2022-12-18T00:31:11.722Z,16.58
2022-12-18T00:32:13.183Z,18.50
2022-12-18T00:33:14.630Z,17.30
2022-12-18T00:34:16.061Z,17.70
2022-12-18T00:35:17.503Z,17.30
2022-12-18T00:36:24.490Z,16.50
2022-12-18T00:37:25.889Z,17.33
2022-12-18T00:38:27.312Z,18.63
2022-12-18T00:39:28.724Z,17.80
2022-12-18T00:40:30.135Z,17.50
2022-12-18T00:41:50.512Z,17.40
2022-12-18T00:43:59.128Z,14.00
2022-12-18T00:45:00.539Z,15.68
2022-12-18T00:46:02.114Z,17.27
2022-12-18T00:47:03.546Z,18.05
2022-12-18T00:48:05.260Z,18.17
2022-12-18T00:49:06.807Z,17.38
2022-12-18T00:50:08.964Z,18.95
2022-12-18T00:51:10.364Z,16.58
2022-12-18T00:52:11.825Z,19.67
2022-12-18T00:53:13.211Z,17.65
2022-12-18T00:54:15.034Z,19.25
2022-12-18T00:55:17.153Z,18.40
2022-12-18T00:56:18.572Z,18.92
2022-12-18T00:57:20.455Z,18.50
2022-12-18T00:58:21.833Z,19.15
2022-12-18T00:59:23.240Z,16.35
2022-12-18T01:00:24.720Z,16.98
2022-12-18T01:01:26.293Z,17.13
2022-12-18T01:02:27.928Z,18.50
2022-12-18T01:03:29.508Z,17.58
2022-12-18T01:04:33.020Z,17.92
2022-12-18T01:05:34.786Z,16.73
2022-12-18T01:06:36.240Z,17.33
2022-12-18T01:07:38.454Z,17.08
2022-12-18T01:08:40.356Z,16.67
2022-12-18T01:09:41.810Z,16.98
2022-12-18T01:10:43.310Z,15.18
2022-12-18T01:11:44.732Z,18.13
2022-12-18T01:12:49.617Z,15.52
2022-12-18T01:13:53.247Z,16.90
2022-12-18T01:14:54.671Z,17.67
2022-12-18T01:15:56.083Z,16.92
2022-12-18T01:16:57.587Z,16.58
2022-12-18T01:17:58.976Z,16.23
2022-12-18T01:19:00.693Z,16.77
2022-12-18T01:20:02.170Z,16.85
2022-12-18T01:21:12.382Z,16.50
2022-12-18T01:22:13.838Z,16.20
2022-12-18T01:23:15.289Z,18.30
2022-12-18T01:24:16.799Z,16.27
2022-12-18T01:25:18.279Z,17.55
2022-12-18T01:26:20.069Z,19.30
2022-12-18T01:27:21.448Z,17.90
2022-12-18T01:28:22.831Z,17.13
2022-12-18T01:29:24.319Z,18.35
2022-12-18T01:30:25.724Z,18.50
2022-12-18T01:31:32.453Z,18.20
2022-12-18T01:32:34.402Z,17.88
2022-12-18T01:33:36.029Z,18.63
2022-12-18T01:34:41.152Z,19.90
2022-12-18T01:35:43.496Z,19.50
2022-12-18T01:36:44.921Z,19.83
2022-12-18T01:37:46.363Z,21.95
2022-12-18T01:38:51.871Z,21.45
2022-12-18T01:39:55.209Z,19.13
2022-12-18T01:41:00.997Z,19.63
2022-12-18T01:42:11.893Z,19.23
2022-12-18T01:43:16.309Z,18.17
2022-12-18T01:44:56.180Z,19.70
2022-12-18T01:46:00.796Z,20.33
2022-12-18T01:47:02.294Z,19.77
2022-12-18T01:48:07.988Z,19.55
2022-12-18T01:49:09.388Z,20.40
2022-12-18T01:50:13.473Z,20.77
2022-12-18T01:51:15.197Z,22.05
2022-12-18T01:52:18.746Z,22.80
2022-12-18T01:53:23.476Z,20.67
2022-12-18T01:54:24.855Z,18.73
2022-12-18T01:55:31.892Z,19.13
2022-12-18T01:56:33.352Z,18.17
2022-12-18T01:57:35.737Z,18.02
2022-12-18T01:58:59.472Z,17.98
2022-12-18T02:00:05.896Z,17.60
2022-12-18T02:01:07.395Z,19.23
2022-12-18T02:02:09.670Z,18.70
2022-12-18T02:04:27.381Z,15.85
2022-12-18T02:05:46.022Z,15.18
2022-12-18T02:06:53.102Z,16.88
2022-12-18T02:08:00.430Z,17.17
2022-12-18T02:09:24.182Z,19.40
2022-12-18T02:10:44.584Z,17.98
2022-12-18T02:13:13.330Z,16.70
2022-12-18T02:14:46.872Z,17.05
2022-12-18T02:16:02.368Z,15.70
2022-12-18T02:17:17.457Z,17.33
2022-12-18T02:18:44.151Z,18.08
2022-12-18T02:20:12.681Z,17.05
2022-12-18T02:21:18.047Z,18.30
2022-12-18T02:22:57.137Z,19.55
2022-12-18T02:24:25.218Z,20.55
2022-12-18T02:25:54.170Z,20.05
2022-12-18T02:27:08.493Z,18.55
2022-12-18T02:28:14.046Z,18.15
2022-12-18T02:29:45.960Z,18.60
2022-12-18T02:30:50.039Z,17.58
2022-12-18T02:31:54.744Z,17.20
2022-12-18T02:32:58.516Z,18.92
2022-12-18T02:34:03.386Z,18.95
2022-12-18T02:35:06.981Z,20.67
2022-12-18T02:36:10.420Z,20.77
2022-12-18T02:37:16.331Z,20.98
2022-12-18T02:38:17.938Z,19.63
2022-12-18T02:39:22.700Z,21.90
2022-12-18T02:40:27.296Z,19.48
2022-12-18T02:41:29.526Z,19.75
2022-12-18T02:42:32.019Z,19.63
2022-12-18T02:43:33.415Z,21.83
2022-12-18T02:44:43.311Z,19.92
2022-12-18T02:45:50.899Z,18.95
2022-12-18T02:46:54.620Z,17.42
2022-12-18T02:47:57.121Z,18.48
2022-12-18T02:49:18.595Z,20.25
2022-12-18T02:50:28.781Z,19.23
2022-12-18T02:51:38.501Z,20.42
2022-12-18T02:52:48.500Z,20.10
2022-12-18T02:54:07.748Z,21.17
2022-12-18T02:55:21.175Z,19.50
2022-12-18T02:56:30.029Z,19.55
2022-12-18T02:57:36.516Z,22.45
2022-12-18T02:59:02.029Z,21.13
2022-12-18T03:00:09.783Z,21.73
2022-12-18T03:01:35.817Z,22.90
2022-12-18T03:02:40.669Z,22.65
2022-12-18T03:04:02.169Z,22.70
2022-12-18T03:05:09.555Z,22.90
2022-12-18T03:06:19.411Z,23.85
2022-12-18T03:07:34.056Z,21.02
2022-12-18T03:08:41.810Z,21.08
2022-12-18T03:09:47.271Z,21.33
2022-12-18T03:10:57.199Z,20.77
2022-12-18T03:12:26.573Z,21.08
2022-12-18T03:13:57.081Z,20.55
2022-12-18T03:15:07.812Z,18.55
2022-12-18T03:16:14.612Z,21.83
2022-12-18T03:17:19.077Z,19.23
2022-12-18T03:18:26.182Z,19.27
2022-12-18T03:19:30.651Z,19.42
2022-12-18T03:20:35.147Z,19.45
2022-12-18T03:21:44.577Z,20.88
2022-12-18T03:22:51.270Z,20.00
2022-12-18T03:23:54.531Z,22.35
2022-12-18T03:24:57.481Z,21.08
2022-12-18T03:26:07.254Z,22.48
2022-12-18T03:27:16.239Z,24.35
2022-12-18T03:28:22.775Z,23.48
2022-12-18T03:29:34.412Z,25.40
2022-12-18T03:30:39.672Z,24.00
2022-12-18T03:31:46.334Z,25.15
2022-12-18T03:33:33.954Z,24.33
2022-12-18T03:34:39.347Z,21.65
2022-12-18T03:35:43.804Z,22.95
2022-12-18T03:36:45.203Z,22.90
2022-12-18T03:37:46.720Z,25.40
2022-12-18T03:38:48.176Z,25.45
2022-12-18T03:39:49.660Z,25.42
2022-12-18T03:41:04.031Z,23.77
2022-12-18T03:43:48.436Z,19.35
2022-12-18T03:45:02.554Z,19.65
2022-12-18T03:46:10.712Z,23.10
2022-12-18T03:47:28.482Z,24.15
2022-12-18T03:48:40.437Z,22.00
2022-12-18T03:50:01.284Z,22.98
2022-12-18T03:51:15.781Z,22.13
2022-12-18T03:52:46.245Z,23.67
2022-12-18T03:54:00.489Z,23.98
2022-12-18T03:55:04.224Z,24.88
2022-12-18T03:56:07.489Z,26.63
2022-12-18T03:57:15.327Z,26.80
2022-12-18T03:58:21.053Z,24.35
2022-12-18T03:59:24.616Z,27.05
2022-12-18T04:00:26.243Z,24.67
2022-12-18T04:01:34.462Z,26.98
2022-12-18T04:03:41.733Z,22.80
2022-12-18T04:04:45.577Z,23.15
2022-12-18T04:05:48.890Z,24.08
2022-12-18T04:06:51.823Z,26.13
2022-12-18T04:07:54.918Z,25.65
2022-12-18T04:08:58.147Z,23.48
2022-12-18T04:10:02.025Z,23.98
2022-12-18T04:11:03.802Z,23.65
2022-12-18T04:12:06.956Z,22.65
2022-12-18T04:13:08.465Z,23.25
2022-12-18T04:14:14.396Z,22.40
2022-12-18T04:15:18.981Z,23.33
2022-12-18T04:16:20.474Z,23.35
2022-12-18T04:17:23.356Z,23.77
2022-12-18T04:18:24.801Z,22.67
2022-12-18T04:19:26.178Z,23.38
2022-12-18T04:20:27.580Z,23.55
2022-12-18T04:21:28.983Z,22.95
2022-12-18T04:22:30.402Z,22.15
2022-12-18T04:23:31.936Z,23.17
2022-12-18T04:24:33.423Z,21.65
2022-12-18T04:25:34.834Z,19.70
2022-12-18T04:26:36.275Z,20.13
2022-12-18T04:27:37.675Z,21.70
2022-12-18T04:28:39.097Z,19.88
2022-12-18T04:29:40.700Z,18.98
2022-12-18T04:30:42.133Z,20.80
2022-12-18T04:31:43.570Z,21.30
2022-12-18T04:32:50.541Z,19.60
2022-12-18T04:33:53.656Z,18.58
2022-12-18T04:34:55.095Z,18.75
2022-12-18T04:35:56.499Z,19.83
2022-12-18T04:36:57.908Z,21.70
2022-12-18T04:37:59.834Z,21.15
2022-12-18T04:39:01.410Z,20.63
2022-12-18T04:40:02.841Z,20.20
2022-12-18T04:41:04.347Z,18.58
2022-12-18T04:42:05.828Z,20.80
2022-12-18T04:43:07.334Z,20.95
2022-12-18T04:44:08.955Z,18.95
2022-12-18T04:45:10.561Z,20.70
2022-12-18T04:46:12.018Z,20.50
2022-12-18T04:47:13.434Z,21.73
2022-12-18T04:48:14.869Z,22.45
2022-12-18T04:49:16.289Z,22.20
2022-12-18T04:50:17.860Z,21.63
2022-12-18T04:51:24.727Z,22.42
2022-12-18T04:52:28.120Z,23.20
2022-12-18T04:53:29.540Z,23.45
2022-12-18T04:54:30.914Z,20.95
2022-12-18T04:55:32.297Z,21.38
2022-12-18T04:56:33.763Z,20.65
2022-12-18T04:57:35.185Z,21.40
2022-12-18T04:58:38.046Z,19.67
2022-12-18T04:59:39.449Z,20.95
2022-12-18T05:00:40.864Z,22.40
2022-12-18T05:01:42.350Z,21.02
2022-12-18T05:02:44.221Z,23.25
2022-12-18T05:03:46.142Z,21.35
2022-12-18T05:04:47.706Z,22.20
2022-12-18T05:05:52.744Z,23.02
2022-12-18T05:06:54.121Z,22.83
2022-12-18T05:07:55.573Z,21.80
2022-12-18T05:08:57.089Z,20.48
2022-12-18T05:09:58.496Z,22.10
2022-12-18T05:11:05.216Z,21.98
2022-12-18T05:12:06.949Z,23.00
2022-12-18T05:13:08.357Z,21.67
2022-12-18T05:14:09.761Z,21.38
2022-12-18T05:15:11.152Z,25.48
2022-12-18T05:16:13.963Z,24.85
2022-12-18T05:17:15.394Z,22.88
2022-12-18T05:18:16.810Z,24.10
2022-12-18T05:19:18.323Z,25.58
2022-12-18T05:20:19.947Z,23.73
2022-12-18T05:21:21.429Z,26.27
2022-12-18T05:22:22.874Z,23.13
2022-12-18T05:23:25.159Z,24.15
2022-12-18T05:25:27.901Z,23.23
2022-12-18T05:26:29.326Z,23.08
2022-12-18T05:27:30.717Z,26.65
2022-12-18T05:28:33.916Z,24.60
2022-12-18T05:29:35.363Z,23.48
2022-12-18T05:30:36.759Z,23.80
2022-12-18T05:31:39.830Z,24.83
2022-12-18T05:32:41.472Z,24.20
2022-12-18T05:33:43.625Z,25.10
2022-12-18T05:34:45.249Z,25.95
2022-12-18T05:35:55.088Z,23.98
2022-12-18T05:36:56.448Z,25.15
2022-12-18T05:37:57.856Z,22.50
2022-12-18T05:39:01.054Z,24.95
2022-12-18T05:40:04.114Z,23.55
2022-12-18T05:41:06.668Z,23.60
2022-12-18T05:42:08.071Z,23.30
2022-12-18T05:43:09.464Z,23.52
2022-12-18T05:44:10.839Z,23.25
2022-12-18T05:45:12.250Z,26.08
2022-12-18T05:46:16.482Z,23.80
2022-12-18T05:47:18.070Z,24.05
2022-12-18T05:48:19.987Z,24.83
2022-12-18T05:49:21.388Z,24.90
2022-12-18T05:50:22.764Z,24.70
2022-12-18T05:51:24.190Z,23.77
2022-12-18T05:52:25.616Z,24.80
2022-12-18T05:53:27.159Z,26.83
2022-12-18T05:54:29.389Z,26.42
2022-12-18T05:55:34.872Z,26.20
2022-12-18T05:56:36.308Z,27.00
2022-12-18T05:57:37.718Z,26.90
2022-12-18T05:58:39.671Z,26.17
2022-12-18T05:59:41.077Z,25.73
2022-12-18T06:00:45.114Z,24.75
2022-12-18T06:01:47.039Z,25.00
2022-12-18T06:02:48.656Z,25.95
2022-12-18T06:03:50.527Z,25.35
2022-12-18T06:04:52.007Z,24.70
2022-12-18T06:05:53.460Z,24.83
2022-12-18T06:06:55.018Z,25.40
2022-12-18T06:07:56.437Z,22.63
2022-12-18T06:08:57.963Z,25.17
2022-12-18T06:09:59.419Z,22.92
2022-12-18T06:11:00.803Z,25.50
2022-12-18T06:12:02.184Z,22.48
2022-12-18T06:13:04.137Z,23.83
2022-12-18T06:14:06.811Z,25.05
2022-12-18T06:15:08.800Z,24.85
2022-12-18T06:16:10.277Z,24.30
2022-12-18T06:17:11.765Z,24.35
2022-12-18T06:18:13.610Z,24.02
2022-12-18T06:19:17.122Z,23.27
2022-12-18T06:20:18.808Z,24.23
2022-12-18T06:21:20.701Z,25.15
2022-12-18T06:22:22.497Z,23.90
2022-12-18T06:23:24.235Z,25.75
2022-12-18T06:24:25.619Z,24.42
2022-12-18T06:25:27.110Z,22.92
2022-12-18T06:26:28.832Z,23.48
2022-12-18T06:27:30.301Z,23.50
2022-12-18T06:28:31.778Z,24.13
2022-12-18T06:29:33.174Z,21.52
2022-12-18T06:30:34.613Z,23.88
2022-12-18T06:31:36.096Z,22.92
2022-12-18T06:32:37.581Z,24.90
2022-12-18T06:33:39.811Z,22.02
2022-12-18T06:34:41.385Z,23.95
2022-12-18T06:35:42.818Z,23.80
2022-12-18T06:36:44.248Z,22.70
2022-12-18T06:37:45.658Z,22.20
2022-12-18T06:38:47.309Z,22.33
2022-12-18T06:39:48.688Z,22.65
2022-12-18T06:40:50.108Z,23.90
2022-12-18T06:41:54.258Z,22.45
2022-12-18T06:42:55.702Z,21.27
2022-12-18T06:44:00.008Z,22.50
2022-12-18T06:45:01.759Z,21.60
2022-12-18T06:46:04.228Z,21.63
2022-12-18T06:47:05.720Z,21.13
2022-12-18T06:48:07.123Z,20.25
2022-12-18T06:49:10.040Z,22.58
2022-12-18T06:50:12.667Z,21.55
2022-12-18T06:51:22.952Z,21.35
2022-12-18T06:52:24.418Z,19.95
2022-12-18T06:53:25.908Z,20.70
2022-12-18T06:54:27.333Z,20.83
2022-12-18T06:55:28.740Z,19.55
2022-12-18T06:56:30.649Z,19.17
2022-12-18T06:57:32.043Z,21.30
2022-12-18T06:58:34.281Z,20.67
2022-12-18T07:00:37.041Z,19.20
2022-12-18T07:01:38.622Z,20.23
2022-12-18T07:02:41.387Z,18.85
2022-12-18T07:03:44.574Z,19.23
2022-12-18T07:04:46.481Z,18.27
2022-12-18T07:05:47.873Z,18.73
2022-12-18T07:06:49.407Z,19.88
2022-12-18T07:07:50.851Z,20.27
2022-12-18T07:08:53.967Z,19.38
2022-12-18T07:09:55.368Z,19.25
2022-12-18T07:10:56.819Z,18.70
2022-12-18T07:11:58.249Z,18.95
2022-12-18T07:13:00.698Z,17.77
2022-12-18T07:14:02.150Z,20.35
2022-12-18T07:15:04.088Z,20.55
2022-12-18T07:16:18.395Z,19.13
2022-12-18T07:17:22.440Z,17.70
2022-12-18T07:18:23.869Z,18.33
2022-12-18T07:19:25.282Z,18.80
2022-12-18T07:20:26.669Z,17.80
2022-12-18T07:21:28.098Z,17.65
2022-12-18T07:22:29.487Z,18.70
2022-12-18T07:23:31.236Z,19.27
2022-12-18T07:24:34.780Z,17.13
2022-12-18T07:25:37.395Z,18.40
2022-12-18T07:26:39.019Z,17.77
2022-12-18T07:27:40.873Z,19.80
2022-12-18T07:28:42.609Z,20.92
2022-12-18T07:29:44.002Z,18.85
2022-12-18T07:30:45.421Z,19.02
2022-12-18T07:31:46.998Z,19.52
2022-12-18T07:32:48.472Z,19.08
2022-12-18T07:33:50.874Z,19.05
2022-12-18T07:34:52.262Z,18.92
2022-12-18T07:35:53.681Z,18.27
2022-12-18T07:36:55.092Z,19.60
2022-12-18T07:37:56.562Z,20.58
2022-12-18T07:38:58.062Z,19.88
2022-12-18T07:39:59.481Z,19.13
2022-12-18T07:41:06.719Z,19.90
2022-12-18T07:42:26.648Z,18.60
2022-12-18T07:43:29.333Z,17.55
2022-12-18T07:44:30.731Z,17.92
2022-12-18T07:45:32.214Z,17.85
2022-12-18T07:46:33.669Z,19.58
2022-12-18T07:47:36.988Z,21.25
2022-12-18T07:48:38.421Z,20.42
2022-12-18T07:49:39.876Z,21.67
2022-12-18T07:50:41.286Z,20.48
2022-12-18T07:51:43.055Z,20.48
2022-12-18T07:52:44.499Z,20.42
2022-12-18T07:53:46.705Z,18.55
2022-12-18T07:54:51.008Z,20.38
2022-12-18T07:56:25.608Z,18.27
2022-12-18T07:57:48.412Z,18.63
2022-12-18T07:58:40.701Z,18.70
2022-12-18T07:59:42.123Z,18.67
2022-12-18T08:00:43.511Z,19.58
2022-12-18T08:01:46.400Z,21.60
2022-12-18T08:02:48.592Z,20.08
2022-12-18T08:03:50.214Z,19.40
2022-12-18T08:04:53.788Z,18.98
2022-12-18T08:05:59.751Z,20.45
2022-12-18T08:07:01.295Z,19.52
2022-12-18T08:08:02.743Z,18.90
2022-12-18T08:09:04.182Z,19.08
2022-12-18T08:10:06.427Z,19.58
2022-12-18T08:12:09.097Z,18.30
2022-12-18T08:13:10.570Z,18.40
2022-12-18T08:14:12.120Z,20.80
2022-12-18T08:15:13.517Z,18.73
2022-12-18T08:16:14.969Z,18.45
2022-12-18T08:17:16.445Z,18.23
2022-12-18T08:18:17.966Z,18.73
2022-12-18T08:19:19.373Z,19.63
2022-12-18T08:20:20.757Z,20.92
2022-12-18T08:21:25.533Z,20.58
2022-12-18T08:22:26.955Z,19.67
2022-12-18T08:23:28.928Z,20.77
2022-12-18T08:24:30.448Z,20.05
2022-12-18T08:25:31.865Z,20.17
2022-12-18T08:26:33.346Z,21.10
2022-12-18T08:27:34.851Z,22.17
2022-12-18T08:28:36.723Z,18.40
2022-12-18T08:29:38.230Z,20.65
2022-12-18T08:30:39.640Z,20.75
2022-12-18T08:31:41.817Z,20.42
2022-12-18T08:32:43.318Z,20.40
2022-12-18T08:33:44.843Z,20.42
2022-12-18T08:34:46.295Z,19.30
2022-12-18T08:35:47.689Z,17.35
2022-12-18T08:36:49.124Z,18.98
2022-12-18T08:37:51.059Z,19.52
2022-12-18T08:38:52.703Z,18.15
2022-12-18T08:39:54.109Z,19.77
2022-12-18T08:41:03.699Z,18.05
2022-12-18T08:42:23.537Z,18.83
2022-12-18T08:43:43.564Z,19.25
2022-12-18T08:44:45.001Z,17.08
2022-12-18T08:45:46.407Z,18.23
2022-12-18T08:46:47.964Z,17.40
2022-12-18T08:47:49.385Z,19.05
2022-12-18T08:48:56.006Z,19.60
2022-12-18T08:49:57.419Z,17.73
2022-12-18T08:51:00.440Z,18.90
2022-12-18T08:52:03.662Z,20.38
2022-12-18T08:53:08.163Z,17.92
2022-12-18T08:54:12.343Z,19.08
2022-12-18T08:55:13.808Z,18.10
2022-12-18T08:56:15.629Z,17.80
2022-12-18T08:57:17.100Z,18.63
2022-12-18T08:58:18.963Z,17.40
2022-12-18T08:59:21.131Z,17.88
2022-12-18T09:00:22.996Z,18.83
2022-12-18T09:01:24.939Z,20.48
2022-12-18T09:02:26.585Z,22.30
2022-12-18T09:03:28.227Z,19.52
2022-12-18T09:04:29.634Z,19.65
2022-12-18T09:05:31.509Z,24.13
2022-12-18T09:06:32.903Z,22.23
2022-12-18T09:07:34.355Z,21.42
2022-12-18T09:08:35.908Z,19.27
2022-12-18T09:09:37.297Z,21.08
2022-12-18T09:10:46.641Z,19.77
2022-12-18T09:11:48.083Z,17.73
2022-12-18T09:12:52.255Z,18.98
2022-12-18T09:13:54.792Z,19.27
2022-12-18T09:14:57.279Z,19.55
2022-12-18T09:15:58.868Z,16.80
2022-12-18T09:17:00.326Z,17.85
2022-12-18T09:18:01.817Z,18.73
2022-12-18T09:19:05.447Z,17.48
2022-12-18T09:20:07.911Z,18.77
2022-12-18T09:21:21.440Z,25.35
2022-12-18T09:22:22.808Z,25.92
2022-12-18T09:23:24.232Z,19.88
2022-12-18T09:24:25.638Z,20.40
2022-12-18T09:25:28.658Z,22.55
2022-12-18T09:26:30.098Z,22.10
2022-12-18T09:27:31.519Z,19.27
2022-12-18T09:28:33.285Z,18.13
2022-12-18T09:29:34.735Z,20.27
2022-12-18T09:30:42.139Z,18.80
2022-12-18T09:31:43.562Z,19.85
2022-12-18T09:32:44.963Z,24.60
2022-12-18T09:33:46.370Z,21.70
2022-12-18T09:34:48.253Z,30.25
2022-12-18T09:35:49.702Z,29.75
2022-12-18T09:36:51.250Z,18.52
2022-12-18T09:37:55.681Z,18.52
2022-12-18T09:38:57.792Z,20.15
2022-12-18T09:39:59.180Z,25.48
2022-12-18T09:41:06.421Z,23.02
2022-12-18T09:42:21.111Z,23.88
2022-12-18T09:43:34.967Z,25.02
2022-12-18T09:44:49.478Z,24.33
2022-12-18T09:45:58.148Z,21.58
2022-12-18T09:47:08.320Z,19.60
2022-12-18T09:48:27.180Z,20.65
2022-12-18T09:49:31.435Z,23.02
2022-12-18T09:50:36.176Z,19.13
2022-12-18T09:51:44.273Z,19.20
2022-12-18T09:52:50.489Z,21.17
2022-12-18T09:53:59.159Z,20.88
2022-12-18T09:55:14.605Z,23.52
2022-12-18T09:56:20.448Z,23.20
2022-12-18T09:57:25.371Z,19.77
2022-12-18T09:58:37.108Z,19.40
2022-12-18T09:59:40.725Z,18.00
2022-12-18T10:00:42.268Z,20.35
2022-12-18T10:01:44.751Z,19.20
2022-12-18T10:02:49.835Z,20.50
2022-12-18T10:03:52.914Z,18.45
2022-12-18T10:05:31.751Z,19.50
2022-12-18T10:06:42.549Z,17.42
2022-12-18T10:08:12.052Z,17.50
2022-12-18T10:09:22.861Z,17.17
2022-12-18T10:10:54.483Z,19.20
2022-12-18T10:12:17.777Z,19.17
2022-12-18T10:13:31.982Z,21.27
2022-12-18T10:15:17.675Z,17.98
2022-12-18T10:16:28.730Z,16.80
2022-12-18T10:18:01.115Z,17.25
2022-12-18T10:20:21.412Z,18.70
2022-12-18T10:21:31.724Z,18.55
2022-12-18T10:22:39.133Z,20.83
2022-12-18T10:24:02.090Z,19.33
2022-12-18T10:25:21.612Z,18.50
2022-12-18T10:26:23.237Z,18.10
2022-12-18T10:27:27.243Z,18.25
2022-12-18T10:28:32.155Z,18.77
2022-12-18T10:29:33.656Z,21.45
2022-12-18T10:30:35.072Z,22.13
2022-12-18T10:31:36.649Z,21.23
2022-12-18T10:32:38.504Z,20.05
2022-12-18T10:33:42.213Z,19.20
2022-12-18T10:34:47.454Z,19.85
2022-12-18T10:35:51.534Z,20.13
2022-12-18T10:36:53.022Z,20.42
2022-12-18T10:38:04.990Z,21.05
2022-12-18T10:39:24.626Z,17.80
2022-12-18T10:40:26.164Z,17.90
2022-12-18T10:41:29.448Z,19.63
2022-12-18T10:42:31.025Z,20.17
2022-12-18T10:43:40.547Z,18.27
2022-12-18T10:44:41.998Z,21.08
2022-12-18T10:46:00.103Z,20.50
2022-12-18T10:47:11.835Z,19.70
2022-12-18T10:48:23.242Z,20.10
2022-12-18T10:49:28.905Z,18.55
2022-12-18T10:51:09.292Z,18.73
2022-12-18T10:52:32.288Z,18.05
2022-12-18T10:53:37.231Z,19.92
2022-12-18T10:54:39.473Z,19.67
2022-12-18T10:55:46.867Z,21.67
2022-12-18T10:56:48.769Z,16.73
2022-12-18T10:57:53.135Z,19.52
2022-12-18T10:59:06.850Z,20.75
2022-12-18T11:00:36.761Z,19.27
2022-12-18T11:01:56.584Z,17.70
2022-12-18T11:03:01.071Z,18.00
2022-12-18T11:04:09.756Z,24.08
2022-12-18T11:05:24.118Z,19.58
2022-12-18T11:06:26.563Z,22.13
2022-12-18T11:07:49.638Z,23.38
2022-12-18T11:09:23.683Z,17.45
2022-12-18T11:10:37.849Z,16.40
2022-12-18T11:11:39.331Z,18.35
2022-12-18T11:12:40.778Z,21.88
2022-12-18T11:13:44.878Z,19.75
2022-12-18T11:14:52.712Z,19.63
2022-12-18T11:15:54.912Z,18.67
2022-12-18T11:18:34.259Z,17.10
2022-12-18T11:19:38.199Z,19.20
2022-12-18T11:20:39.998Z,18.73
2022-12-18T11:21:44.368Z,21.10
2022-12-18T11:22:57.964Z,19.30
2022-12-18T11:23:59.384Z,19.92
2022-12-18T11:26:37.159Z,19.08
2022-12-18T11:27:40.623Z,21.35
2022-12-18T11:28:47.375Z,19.95
2022-12-18T11:29:52.782Z,20.52
2022-12-18T11:31:22.210Z,20.00
2022-12-18T11:32:39.513Z,17.63
2022-12-18T11:34:04.876Z,18.83
2022-12-18T11:35:45.599Z,16.02
2022-12-18T11:36:48.314Z,16.02
2022-12-18T11:37:58.554Z,17.63
2022-12-18T11:39:07.172Z,17.20
2022-12-18T11:40:23.465Z,17.88
2022-12-18T11:41:52.129Z,18.52
2022-12-18T11:43:01.892Z,18.23
2022-12-18T11:44:06.595Z,18.50
2022-12-18T11:45:13.991Z,19.05
2022-12-18T11:46:24.025Z,19.27
2022-12-18T11:47:43.532Z,19.08
2022-12-18T11:48:58.868Z,17.83
2022-12-18T11:50:02.819Z,17.17
2022-12-18T11:51:12.119Z,20.60
2022-12-18T11:52:19.269Z,18.92
2022-12-18T11:53:21.465Z,18.75
2022-12-18T11:55:41.892Z,16.38
2022-12-18T11:57:14.348Z,17.95
2022-12-18T11:58:30.956Z,16.63
2022-12-18T11:59:44.927Z,16.85
2022-12-18T12:00:57.238Z,18.92
2022-12-18T12:02:10.698Z,19.52
2022-12-18T12:03:45.599Z,17.05
2022-12-18T12:05:20.583Z,17.17
2022-12-18T12:06:22.340Z,17.40
2022-12-18T12:07:29.744Z,17.60
2022-12-18T12:08:42.132Z,18.45
2022-12-18T12:10:28.921Z,17.90
2022-12-18T12:11:44.518Z,17.63
2022-12-18T12:13:15.223Z,19.50
2022-12-18T12:14:51.945Z,16.90
2022-12-18T12:16:24.532Z,18.80
2022-12-18T12:17:38.809Z,19.08
2022-12-18T12:18:53.475Z,17.25
2022-12-18T12:20:14.000Z,18.23
2022-12-18T12:21:26.317Z,19.02
2022-12-18T12:22:40.962Z,17.83
2022-12-18T12:24:26.918Z,17.77
2022-12-18T12:25:38.898Z,17.95
2022-12-18T12:26:51.759Z,18.90
2022-12-18T12:28:07.759Z,19.63
2022-12-18T12:29:28.927Z,18.90
2022-12-18T12:31:07.958Z,17.83
2022-12-18T12:32:27.129Z,17.23
2022-12-18T12:33:37.820Z,17.27
2022-12-18T12:35:11.650Z,18.20
2022-12-18T12:36:31.752Z,18.17
2022-12-18T12:37:54.447Z,19.50
2022-12-18T12:39:02.039Z,18.23
2022-12-18T12:40:15.327Z,17.90
2022-12-18T12:41:47.188Z,20.23
2022-12-18T12:43:17.693Z,20.00
2022-12-18T12:44:31.647Z,17.80
2022-12-18T12:46:13.691Z,20.27
2022-12-18T12:47:27.750Z,17.17
2022-12-18T12:48:51.383Z,19.50
2022-12-18T12:49:53.087Z,15.23
2022-12-18T12:50:56.311Z,16.27
2022-12-18T12:52:13.147Z,16.77
2022-12-18T12:53:31.791Z,17.48
2022-12-18T12:54:34.758Z,17.38
2022-12-18T12:55:36.771Z,17.38
2022-12-18T12:56:46.633Z,18.80
2022-12-18T12:58:29.083Z,16.95
2022-12-18T12:59:40.935Z,15.43
2022-12-18T13:00:59.326Z,17.13
2022-12-18T13:02:15.574Z,15.27
2022-12-18T13:03:41.990Z,16.65
2022-12-18T13:04:49.583Z,16.65
2022-12-18T13:05:56.002Z,16.42
2022-12-18T13:07:01.953Z,16.13
2022-12-18T13:09:36.955Z,16.50
2022-12-18T13:10:43.808Z,17.85
2022-12-18T13:12:06.457Z,16.85
2022-12-18T13:13:23.747Z,15.10
2022-12-18T13:14:41.516Z,16.88
2022-12-18T13:15:51.177Z,17.25
2022-12-18T13:17:13.228Z,16.30
2022-12-18T13:18:21.041Z,17.08
2022-12-18T13:19:26.352Z,16.95
2022-12-18T13:20:35.589Z,17.02
2022-12-18T13:21:37.124Z,17.33
2022-12-18T13:22:48.269Z,18.10
2022-12-18T13:23:49.888Z,17.50
2022-12-18T13:24:52.146Z,17.65
2022-12-18T13:25:54.703Z,18.75
2022-12-18T13:26:56.123Z,19.05
2022-12-18T13:28:04.923Z,19.30
2022-12-18T13:29:07.074Z,18.13
2022-12-18T13:30:52.572Z,19.02
2022-12-18T13:32:01.816Z,18.27
2022-12-18T13:33:15.145Z,19.15
2022-12-18T13:34:27.576Z,20.35
2022-12-18T13:35:32.508Z,18.83
2022-12-18T13:36:35.115Z,21.02
2022-12-18T13:37:44.332Z,20.13
2022-12-18T13:38:45.867Z,20.75
2022-12-18T13:39:47.569Z,22.05
2022-12-18T13:40:48.940Z,25.85
2022-12-18T13:41:53.828Z,24.38
2022-12-18T13:43:14.047Z,23.05
2022-12-18T13:44:42.324Z,20.85
2022-12-18T13:45:50.265Z,22.88
2022-12-18T13:46:53.179Z,22.00
2022-12-18T13:47:54.675Z,24.65
2022-12-18T13:48:59.195Z,22.65
2022-12-18T13:50:10.258Z,24.23
2022-12-18T13:51:18.925Z,23.63
2022-12-18T13:52:23.904Z,22.80
2022-12-18T13:53:33.823Z,23.25
2022-12-18T13:54:38.548Z,22.45
2022-12-18T13:55:45.975Z,26.35
2022-12-18T13:56:49.359Z,28.33
2022-12-18T13:57:50.781Z,27.60
2022-12-18T14:00:28.323Z,22.33
2022-12-18T14:01:30.140Z,25.33
2022-12-18T14:02:32.463Z,25.75
2022-12-18T14:04:36.587Z,24.52
2022-12-18T14:05:40.250Z,27.20
2022-12-18T14:06:47.609Z,24.40
2022-12-18T14:07:49.269Z,25.20
2022-12-18T14:08:53.756Z,26.13
2022-12-18T14:10:41.239Z,26.40
2022-12-18T14:11:24.050Z,26.08
2022-12-18T14:12:49.649Z,29.40
2022-12-18T14:13:51.560Z,28.27
2022-12-18T14:14:55.228Z,28.30
2022-12-18T14:15:57.766Z,28.08
2022-12-18T14:17:00.811Z,28.08
2022-12-18T14:18:24.456Z,27.48
2022-12-18T14:19:28.191Z,28.55
2022-12-18T14:20:33.508Z,26.75
2022-12-18T14:21:36.064Z,26.38
2022-12-18T14:22:37.471Z,28.27
2022-12-18T14:23:39.171Z,28.67
2022-12-18T14:24:41.045Z,28.50
2022-12-18T14:25:47.352Z,28.15
2022-12-18T14:26:50.771Z,28.30
2022-12-18T14:28:08.748Z,27.17
2022-12-18T14:29:30.932Z,27.58
2022-12-18T14:30:44.068Z,29.48
2022-12-18T14:31:45.535Z,26.88
2022-12-18T14:33:02.968Z,29.13
2022-12-18T14:34:04.378Z,28.42
2022-12-18T14:35:14.407Z,28.25
2022-12-18T14:36:21.291Z,27.33
2022-12-18T14:37:25.859Z,28.83